Airport View

Enter AWOS ICAO identifier for current METAR.

ex. KFNL

PATG 290356Z AUTO 20004KT 10SM OVC070 09/07 A2974 RMK AO2 SLP164 T00940067

29 Sep 2020 04:23

Frequency: 119.3

Other Area AWOS: PAPM - PAMB - PAEH - PADL

TAF PADL 282336Z 2900/2924 13006KT P6SM OVC025 FM292000 04012G18KT P6SM VCSH OVC025